MST,Max TemperatureF,Mean TemperatureF,Min TemperatureF,Max Dew PointF,MeanDew PointF,Min DewpointF,Max Humidity, Mean Humidity, Min Humidity, Max Sea Level PressureIn, Mean Sea Level PressureIn, Min Sea Level PressureIn, Max VisibilityMiles, Mean VisibilityMiles, Min VisibilityMiles, Max Wind SpeedMPH, Mean Wind SpeedMPH, Max Gust SpeedMPH,PrecipitationIn, CloudCover, Events, WindDirDegrees
2013-1-1,12,0,-12,5,-6,-13,100,90,79,30.61,30.33,30.13,10,5,0,16,2,16,0.00,1,Fog,303
2013-1-2,9,-2,-13,3,-8,-15,100,87,73,30.67,30.48,30.31,10,6,0,12,3,12,0.00,3,Fog,306
2013-1-3,9,-4,-17,5,-10,-20,100,86,77,30.79,30.55,30.37,10,6,0,12,1,,0.00,2,Fog,323
2013-1-4,10,-2,-15,3,-6,-15,100,90,79,30.72,30.62,30.37,10,10,6,16,2,18,0.00,0,,305
2013-1-5,9,-4,-17,3,-8,-16,100,89,78,30.78,30.70,30.37,10,10,6,13,3,16,0.00,0,,308
2013-1-6,9,-3,-15,5,-5,-17,95,83,71,30.73,30.59,30.43,10,10,10,13,2,14,0.00,0,,295
2013-1-7,16,4,-9,8,-2,-11,100,87,73,30.47,30.38,30.11,10,10,10,14,2,15,0.00,0,,313
2013-1-8,17,7,-4,10,2,-6,96,85,73,30.63,30.47,30.33,10,10,10,15,3,16,0.00,0,,330
2013-1-9,19,6,-7,13,4,-4,100,87,74,30.70,30.56,30.33,10,10,5,14,3,14,0.00,0,,303
2013-1-10,39,18,-3,24,9,-4,96,85,73,30.31,29.95,29.53,10,10,7,30,5,40,0.00,2,,328
2013-1-11,30,16,1,27,6,-5,69,57,45,30.07,29.86,29.48,10,9,0,24,8,29,0.00,1,Fog-Snow,255
2013-1-12,12,-1,-15,2,-6,-13,82,74,66,30.27,30.18,30.00,10,10,10,10,2,12,0.00,1,,306
2013-1-13,12,-1,-15,5,0,-18,95,81,67,30.37,30.18,30.00,10,7,1,12,3,13,T,5,Snow,323
2013-1-14,5,-7,-20,-4,-11,-20,95,82,68,30.58,30.40,30.11,10,9,1,12,2,13,0.00,1,,316
2013-1-15,7,-5,-17,-2,-9,-18,81,74,66,30.81,30.69,30.30,10,10,10,12,2,14,0.00,1,,319
2013-1-16,12,0,-12,2,-5,-12,87,77,66,30.87,30.78,30.51,10,10,10,16,4,18,0.00,0,,328
2013-1-17,15,3,-9,6,-1,-9,95,78,61,30.91,30.79,30.72,10,10,10,12,3,14,0.00,0,,310
2013-1-18,15,3,-10,8,-1,-13,100,86,72,30.80,30.70,30.63,10,10,9,10,1,12,0.00,0,,326
2013-1-19,16,3,-10,10,0,-15,96,85,73,30.80,30.70,30.65,10,10,10,13,2,14,0.00,0,,301
2013-1-20,17,5,-8,10,-1,-9,100,87,73,30.74,30.59,30.42,10,7,0,10,1,12,0.00,1,Fog,317
2013-1-21,20,6,-9,13,0,-12,100,88,76,30.71,30.58,30.37,10,8,1,13,2,15,0.00,1,,301
2013-1-22,18,4,-10,12,0,-13,100,90,79,30.72,30.52,30.39,10,5,0,14,2,16,0.00,1,Fog,282
2013-1-23,17,6,-6,12,2,-10,96,88,79,30.75,30.60,30.42,10,10,6,12,3,13,0.00,1,,308
2013-1-24,27,18,9,24,18,6,92,83,74,30.57,30.50,30.36,10,10,9,14,5,15,T,6,,321
2013-1-25,32,29,26,28,27,24,100,92,84,30.45,30.35,30.23,10,8,3,8,2,8,T,8,Snow,331
2013-1-26,33,32,30,32,30,28,100,96,92,30.27,30.02,29.85,10,4,1,10,4,12,0.39,8,Rain-Snow,329
2013-1-27,43,37,30,36,33,30,100,93,85,29.96,29.86,29.75,10,8,2,25,3,28,0.02,6,Rain,314
2013-1-28,35,30,24,32,26,13,100,77,54,29.93,29.80,29.71,10,8,1,21,9,24,0.02,6,Rain-Snow,282
2013-1-29,31,23,15,22,16,10,96,73,50,30.20,30.01,29.93,10,9,1,17,4,18,T,4,Snow,323
2013-1-30,37,25,13,25,19,14,92,72,52,30.29,30.25,30.21,10,10,10,15,3,17,0.00,3,,347
2013-1-31,40,28,16,26,21,13,92,76,59,30.43,30.35,30.25,10,10,10,12,3,13,0.00,0,,73